sensor_id;sensor_type;location;lat;lon;timestamp;P1;durP1;ratioP1;P2;durP2;ratioP2
68940;SDS011;55982;51.476;7.552;2022-07-24T00:02:11;7.43;;;6.63;;
68940;SDS011;55982;51.476;7.552;2022-07-24T00:04:36;7.28;;;6.47;;
68940;SDS011;55982;51.476;7.552;2022-07-24T00:07:02;12.43;;;7.40;;
68940;SDS011;55982;51.476;7.552;2022-07-24T00:09:27;7.82;;;6.60;;
68940;SDS011;55982;51.476;7.552;2022-07-24T00:11:53;8.73;;;5.85;;
68940;SDS011;55982;51.476;7.552;2022-07-24T00:14:19;7.63;;;5.68;;
68940;SDS011;55982;51.476;7.552;2022-07-24T00:16:44;9.27;;;6.18;;
68940;SDS011;55982;51.476;7.552;2022-07-24T00:19:12;7.28;;;5.93;;
68940;SDS011;55982;51.476;7.552;2022-07-24T00:21:38;10.45;;;6.60;;
68940;SDS011;55982;51.476;7.552;2022-07-24T00:24:03;6.63;;;5.72;;
68940;SDS011;55982;51.476;7.552;2022-07-24T00:26:29;7.55;;;5.95;;
68940;SDS011;55982;51.476;7.552;2022-07-24T00:28:54;9.00;;;6.00;;
68940;SDS011;55982;51.476;7.552;2022-07-24T00:31:20;10.32;;;5.93;;
68940;SDS011;55982;51.476;7.552;2022-07-24T00:33:45;9.70;;;6.20;;
68940;SDS011;55982;51.476;7.552;2022-07-24T00:36:13;12.15;;;5.82;;
68940;SDS011;55982;51.476;7.552;2022-07-24T00:38:39;9.55;;;6.43;;
68940;SDS011;55982;51.476;7.552;2022-07-24T00:41:04;8.57;;;6.13;;
68940;SDS011;55982;51.476;7.552;2022-07-24T00:43:30;10.43;;;6.07;;
68940;SDS011;55982;51.476;7.552;2022-07-24T00:45:55;8.55;;;6.25;;
68940;SDS011;55982;51.476;7.552;2022-07-24T00:48:21;7.45;;;6.20;;
68940;SDS011;55982;51.476;7.552;2022-07-24T00:50:46;8.18;;;6.18;;
68940;SDS011;55982;51.476;7.552;2022-07-24T00:53:12;12.55;;;8.20;;
68940;SDS011;55982;51.476;7.552;2022-07-24T00:55:39;19.48;;;10.65;;
68940;SDS011;55982;51.476;7.552;2022-07-24T00:58:04;26.05;;;15.00;;
68940;SDS011;55982;51.476;7.552;2022-07-24T01:00:30;32.17;;;16.48;;
68940;SDS011;55982;51.476;7.552;2022-07-24T01:02:56;32.20;;;17.50;;
68940;SDS011;55982;51.476;7.552;2022-07-24T01:05:21;29.98;;;17.85;;
68940;SDS011;55982;51.476;7.552;2022-07-24T01:07:47;34.25;;;18.92;;
68940;SDS011;55982;51.476;7.552;2022-07-24T01:10:13;35.58;;;18.98;;
68940;SDS011;55982;51.476;7.552;2022-07-24T01:12:39;37.05;;;19.35;;
68940;SDS011;55982;51.476;7.552;2022-07-24T01:15:06;35.17;;;19.45;;
68940;SDS011;55982;51.476;7.552;2022-07-24T01:17:34;43.67;;;21.13;;
68940;SDS011;55982;51.476;7.552;2022-07-24T01:20:02;36.63;;;19.55;;
68940;SDS011;55982;51.476;7.552;2022-07-24T01:22:30;33.67;;;19.70;;
68940;SDS011;55982;51.476;7.552;2022-07-24T01:24:55;35.65;;;21.00;;
68940;SDS011;55982;51.476;7.552;2022-07-24T01:27:21;32.42;;;18.85;;
68940;SDS011;55982;51.476;7.552;2022-07-24T01:29:48;32.97;;;19.20;;
68940;SDS011;55982;51.476;7.552;2022-07-24T01:32:13;34.67;;;18.58;;
68940;SDS011;55982;51.476;7.552;2022-07-24T01:34:39;40.33;;;18.35;;
68940;SDS011;55982;51.476;7.552;2022-07-24T01:37:05;35.15;;;19.00;;
68940;SDS011;55982;51.476;7.552;2022-07-24T01:39:31;33.40;;;18.10;;
68940;SDS011;55982;51.476;7.552;2022-07-24T01:41:57;34.83;;;18.98;;
68940;SDS011;55982;51.476;7.552;2022-07-24T01:44:22;30.85;;;18.70;;
68940;SDS011;55982;51.476;7.552;2022-07-24T01:46:48;36.78;;;20.35;;
68940;SDS011;55982;51.476;7.552;2022-07-24T01:49:14;33.20;;;20.05;;
68940;SDS011;55982;51.476;7.552;2022-07-24T01:51:39;34.95;;;18.10;;
68940;SDS011;55982;51.476;7.552;2022-07-24T01:54:07;28.38;;;17.35;;
68940;SDS011;55982;51.476;7.552;2022-07-24T01:56:32;28.10;;;16.73;;
68940;SDS011;55982;51.476;7.552;2022-07-24T01:58:58;31.60;;;16.73;;
68940;SDS011;55982;51.476;7.552;2022-07-24T02:01:25;29.65;;;16.90;;
68940;SDS011;55982;51.476;7.552;2022-07-24T02:03:51;32.05;;;17.48;;
68940;SDS011;55982;51.476;7.552;2022-07-24T02:06:17;31.10;;;18.25;;
68940;SDS011;55982;51.476;7.552;2022-07-24T02:08:43;28.63;;;16.98;;
68940;SDS011;55982;51.476;7.552;2022-07-24T02:11:09;29.15;;;15.05;;
68940;SDS011;55982;51.476;7.552;2022-07-24T02:13:35;24.58;;;14.35;;
68940;SDS011;55982;51.476;7.552;2022-07-24T02:16:00;23.08;;;14.27;;
68940;SDS011;55982;51.476;7.552;2022-07-24T02:18:26;23.38;;;13.00;;
68940;SDS011;55982;51.476;7.552;2022-07-24T02:20:52;22.38;;;12.15;;
68940;SDS011;55982;51.476;7.552;2022-07-24T02:23:18;21.38;;;12.13;;
68940;SDS011;55982;51.476;7.552;2022-07-24T02:25:46;20.13;;;11.85;;
68940;SDS011;55982;51.476;7.552;2022-07-24T02:28:13;19.58;;;11.57;;
68940;SDS011;55982;51.476;7.552;2022-07-24T02:30:40;20.30;;;11.60;;
68940;SDS011;55982;51.476;7.552;2022-07-24T02:33:05;20.75;;;11.13;;
68940;SDS011;55982;51.476;7.552;2022-07-24T02:35:31;13.65;;;10.05;;
68940;SDS011;55982;51.476;7.552;2022-07-24T02:37:57;14.80;;;9.95;;
68940;SDS011;55982;51.476;7.552;2022-07-24T02:40:22;14.00;;;9.68;;
68940;SDS011;55982;51.476;7.552;2022-07-24T02:42:48;14.40;;;8.38;;
68940;SDS011;55982;51.476;7.552;2022-07-24T02:45:13;15.63;;;8.43;;
68940;SDS011;55982;51.476;7.552;2022-07-24T02:47:57;13.52;;;8.63;;
68940;SDS011;55982;51.476;7.552;2022-07-24T02:50:24;10.88;;;7.85;;
68940;SDS011;55982;51.476;7.552;2022-07-24T02:52:53;12.73;;;8.65;;
68940;SDS011;55982;51.476;7.552;2022-07-24T02:55:19;12.38;;;8.45;;
68940;SDS011;55982;51.476;7.552;2022-07-24T02:57:44;11.93;;;8.50;;
68940;SDS011;55982;51.476;7.552;2022-07-24T03:00:10;10.82;;;8.05;;
68940;SDS011;55982;51.476;7.552;2022-07-24T03:02:38;12.70;;;8.48;;
68940;SDS011;55982;51.476;7.552;2022-07-24T03:05:04;12.80;;;8.77;;
68940;SDS011;55982;51.476;7.552;2022-07-24T03:07:32;14.57;;;8.52;;
68940;SDS011;55982;51.476;7.552;2022-07-24T03:10:01;10.23;;;8.52;;
68940;SDS011;55982;51.476;7.552;2022-07-24T03:12:28;14.55;;;8.40;;
68940;SDS011;55982;51.476;7.552;2022-07-24T03:14:53;14.15;;;9.20;;
68940;SDS011;55982;51.476;7.552;2022-07-24T03:17:19;12.35;;;8.52;;
68940;SDS011;55982;51.476;7.552;2022-07-24T03:19:44;11.63;;;8.75;;
68940;SDS011;55982;51.476;7.552;2022-07-24T03:22:09;13.82;;;8.40;;
68940;SDS011;55982;51.476;7.552;2022-07-24T03:24:35;16.55;;;8.90;;
68940;SDS011;55982;51.476;7.552;2022-07-24T03:27:00;12.75;;;8.63;;
68940;SDS011;55982;51.476;7.552;2022-07-24T03:29:26;12.50;;;8.80;;
68940;SDS011;55982;51.476;7.552;2022-07-24T03:31:51;10.27;;;8.38;;
68940;SDS011;55982;51.476;7.552;2022-07-24T03:34:16;13.43;;;9.27;;
68940;SDS011;55982;51.476;7.552;2022-07-24T03:36:42;16.40;;;9.40;;
68940;SDS011;55982;51.476;7.552;2022-07-24T03:39:07;10.55;;;8.75;;
68940;SDS011;55982;51.476;7.552;2022-07-24T03:41:33;15.80;;;9.68;;
68940;SDS011;55982;51.476;7.552;2022-07-24T03:43:58;14.20;;;8.73;;
68940;SDS011;55982;51.476;7.552;2022-07-24T03:46:24;16.48;;;9.95;;
68940;SDS011;55982;51.476;7.552;2022-07-24T03:48:50;13.43;;;9.07;;
68940;SDS011;55982;51.476;7.552;2022-07-24T03:51:15;13.98;;;9.35;;
68940;SDS011;55982;51.476;7.552;2022-07-24T03:53:41;14.13;;;8.77;;
68940;SDS011;55982;51.476;7.552;2022-07-24T03:56:09;13.73;;;8.90;;
68940;SDS011;55982;51.476;7.552;2022-07-24T03:58:35;15.77;;;8.98;;
68940;SDS011;55982;51.476;7.552;2022-07-24T04:01:01;11.27;;;8.88;;
68940;SDS011;55982;51.476;7.552;2022-07-24T04:03:26;9.65;;;8.30;;
68940;SDS011;55982;51.476;7.552;2022-07-24T04:05:51;10.80;;;7.82;;
68940;SDS011;55982;51.476;7.552;2022-07-24T04:08:17;9.75;;;7.63;;
68940;SDS011;55982;51.476;7.552;2022-07-24T04:10:42;9.27;;;7.45;;
68940;SDS011;55982;51.476;7.552;2022-07-24T04:13:08;10.15;;;7.85;;
68940;SDS011;55982;51.476;7.552;2022-07-24T04:15:33;10.90;;;7.72;;
68940;SDS011;55982;51.476;7.552;2022-07-24T04:17:59;11.85;;;7.72;;
68940;SDS011;55982;51.476;7.552;2022-07-24T04:20:24;11.30;;;7.75;;
68940;SDS011;55982;51.476;7.552;2022-07-24T04:22:53;11.50;;;7.50;;
68940;SDS011;55982;51.476;7.552;2022-07-24T04:25:18;9.80;;;7.18;;
68940;SDS011;55982;51.476;7.552;2022-07-24T04:27:44;9.57;;;7.50;;
68940;SDS011;55982;51.476;7.552;2022-07-24T04:30:10;9.98;;;7.03;;
68940;SDS011;55982;51.476;7.552;2022-07-24T04:32:36;11.20;;;7.25;;
68940;SDS011;55982;51.476;7.552;2022-07-24T04:35:02;10.13;;;7.45;;
68940;SDS011;55982;51.476;7.552;2022-07-24T04:37:29;9.00;;;7.75;;
68940;SDS011;55982;51.476;7.552;2022-07-24T04:39:55;9.32;;;7.10;;
68940;SDS011;55982;51.476;7.552;2022-07-24T04:42:23;11.68;;;6.43;;
68940;SDS011;55982;51.476;7.552;2022-07-24T04:44:49;9.43;;;7.50;;
68940;SDS011;55982;51.476;7.552;2022-07-24T04:47:14;9.30;;;7.13;;
68940;SDS011;55982;51.476;7.552;2022-07-24T04:49:40;9.02;;;7.28;;
68940;SDS011;55982;51.476;7.552;2022-07-24T04:52:08;8.98;;;7.20;;
68940;SDS011;55982;51.476;7.552;2022-07-24T04:54:34;8.88;;;6.88;;
68940;SDS011;55982;51.476;7.552;2022-07-24T04:56:59;9.65;;;6.80;;
68940;SDS011;55982;51.476;7.552;2022-07-24T04:59:24;9.35;;;6.97;;
68940;SDS011;55982;51.476;7.552;2022-07-24T05:01:50;13.32;;;7.13;;
68940;SDS011;55982;51.476;7.552;2022-07-24T05:04:15;9.98;;;6.88;;
68940;SDS011;55982;51.476;7.552;2022-07-24T05:06:41;9.70;;;6.63;;
68940;SDS011;55982;51.476;7.552;2022-07-24T05:09:06;10.55;;;6.68;;
68940;SDS011;55982;51.476;7.552;2022-07-24T05:11:32;7.07;;;6.38;;
68940;SDS011;55982;51.476;7.552;2022-07-24T05:13:57;6.72;;;6.00;;
68940;SDS011;55982;51.476;7.552;2022-07-24T05:16:22;7.07;;;6.38;;
68940;SDS011;55982;51.476;7.552;2022-07-24T05:18:48;6.65;;;6.03;;
68940;SDS011;55982;51.476;7.552;2022-07-24T05:21:13;7.10;;;6.30;;
68940;SDS011;55982;51.476;7.552;2022-07-24T05:23:41;7.15;;;6.45;;
68940;SDS011;55982;51.476;7.552;2022-07-24T05:26:08;7.30;;;5.55;;
68940;SDS011;55982;51.476;7.552;2022-07-24T05:28:33;7.75;;;6.05;;
68940;SDS011;55982;51.476;7.552;2022-07-24T05:30:59;7.07;;;6.05;;
68940;SDS011;55982;51.476;7.552;2022-07-24T05:33:24;7.07;;;5.93;;
68940;SDS011;55982;51.476;7.552;2022-07-24T05:35:50;6.15;;;5.40;;
68940;SDS011;55982;51.476;7.552;2022-07-24T05:38:15;6.93;;;5.63;;
68940;SDS011;55982;51.476;7.552;2022-07-24T05:40:41;8.88;;;6.10;;
68940;SDS011;55982;51.476;7.552;2022-07-24T05:43:06;6.65;;;5.40;;
68940;SDS011;55982;51.476;7.552;2022-07-24T05:45:32;7.18;;;5.70;;
68940;SDS011;55982;51.476;7.552;2022-07-24T05:47:57;8.27;;;5.82;;
68940;SDS011;55982;51.476;7.552;2022-07-24T05:50:23;7.00;;;5.40;;
68940;SDS011;55982;51.476;7.552;2022-07-24T05:52:48;7.63;;;5.70;;
68940;SDS011;55982;51.476;7.552;2022-07-24T05:55:14;6.15;;;5.53;;
68940;SDS011;55982;51.476;7.552;2022-07-24T05:57:39;9.27;;;6.07;;
68940;SDS011;55982;51.476;7.552;2022-07-24T06:00:05;6.13;;;5.43;;
68940;SDS011;55982;51.476;7.552;2022-07-24T06:02:34;8.07;;;6.07;;
68940;SDS011;55982;51.476;7.552;2022-07-24T06:04:59;10.98;;;5.63;;
68940;SDS011;55982;51.476;7.552;2022-07-24T06:07:25;7.30;;;5.70;;
68940;SDS011;55982;51.476;7.552;2022-07-24T06:09:50;8.15;;;5.90;;
68940;SDS011;55982;51.476;7.552;2022-07-24T06:12:17;7.72;;;5.43;;
68940;SDS011;55982;51.476;7.552;2022-07-24T06:14:42;5.80;;;5.18;;
68940;SDS011;55982;51.476;7.552;2022-07-24T06:17:08;5.93;;;5.40;;
68940;SDS011;55982;51.476;7.552;2022-07-24T06:19:33;7.63;;;5.35;;
68940;SDS011;55982;51.476;7.552;2022-07-24T06:21:59;6.32;;;5.32;;
68940;SDS011;55982;51.476;7.552;2022-07-24T06:24:24;5.95;;;5.07;;
68940;SDS011;55982;51.476;7.552;2022-07-24T06:26:50;6.53;;;4.95;;
68940;SDS011;55982;51.476;7.552;2022-07-24T06:29:15;5.32;;;4.63;;
68940;SDS011;55982;51.476;7.552;2022-07-24T06:31:41;6.55;;;4.90;;
68940;SDS011;55982;51.476;7.552;2022-07-24T06:34:06;7.07;;;4.85;;
68940;SDS011;55982;51.476;7.552;2022-07-24T06:36:31;5.50;;;4.90;;
68940;SDS011;55982;51.476;7.552;2022-07-24T06:38:57;9.38;;;5.28;;
68940;SDS011;55982;51.476;7.552;2022-07-24T06:41:22;6.93;;;4.75;;
68940;SDS011;55982;51.476;7.552;2022-07-24T06:43:48;6.78;;;4.57;;
68940;SDS011;55982;51.476;7.552;2022-07-24T06:46:13;4.75;;;4.28;;
68940;SDS011;55982;51.476;7.552;2022-07-24T06:48:39;5.20;;;4.57;;
68940;SDS011;55982;51.476;7.552;2022-07-24T06:51:04;8.20;;;4.50;;
68940;SDS011;55982;51.476;7.552;2022-07-24T06:53:30;7.20;;;5.32;;
68940;SDS011;55982;51.476;7.552;2022-07-24T06:55:55;5.10;;;4.60;;
68940;SDS011;55982;51.476;7.552;2022-07-24T06:58:24;6.70;;;4.40;;
68940;SDS011;55982;51.476;7.552;2022-07-24T07:00:49;4.55;;;4.15;;
68940;SDS011;55982;51.476;7.552;2022-07-24T07:03:16;5.25;;;4.60;;
68940;SDS011;55982;51.476;7.552;2022-07-24T07:05:44;5.18;;;4.32;;
68940;SDS011;55982;51.476;7.552;2022-07-24T07:08:10;5.70;;;4.18;;
68940;SDS011;55982;51.476;7.552;2022-07-24T07:10:35;7.65;;;4.43;;
68940;SDS011;55982;51.476;7.552;2022-07-24T07:13:00;4.53;;;4.10;;
68940;SDS011;55982;51.476;7.552;2022-07-24T07:15:29;5.15;;;4.35;;
68940;SDS011;55982;51.476;7.552;2022-07-24T07:17:57;9.70;;;6.65;;
68940;SDS011;55982;51.476;7.552;2022-07-24T07:20:23;8.93;;;6.22;;
68940;SDS011;55982;51.476;7.552;2022-07-24T07:22:48;5.72;;;4.40;;
68940;SDS011;55982;51.476;7.552;2022-07-24T07:25:14;7.05;;;3.92;;
68940;SDS011;55982;51.476;7.552;2022-07-24T07:27:39;7.20;;;4.28;;
68940;SDS011;55982;51.476;7.552;2022-07-24T07:30:05;6.00;;;4.20;;
68940;SDS011;55982;51.476;7.552;2022-07-24T07:32:32;5.55;;;4.30;;
68940;SDS011;55982;51.476;7.552;2022-07-24T07:34:57;6.13;;;5.05;;
68940;SDS011;55982;51.476;7.552;2022-07-24T07:37:25;6.35;;;4.35;;
68940;SDS011;55982;51.476;7.552;2022-07-24T07:39:50;7.13;;;4.53;;
68940;SDS011;55982;51.476;7.552;2022-07-24T07:42:19;6.30;;;4.30;;
68940;SDS011;55982;51.476;7.552;2022-07-24T07:44:44;5.15;;;3.75;;
68940;SDS011;55982;51.476;7.552;2022-07-24T07:47:10;6.93;;;4.40;;
68940;SDS011;55982;51.476;7.552;2022-07-24T07:49:35;6.50;;;3.55;;
68940;SDS011;55982;51.476;7.552;2022-07-24T07:52:01;4.35;;;3.95;;
68940;SDS011;55982;51.476;7.552;2022-07-24T07:54:27;4.47;;;4.07;;
68940;SDS011;55982;51.476;7.552;2022-07-24T07:56:52;5.10;;;3.53;;
68940;SDS011;55982;51.476;7.552;2022-07-24T07:59:18;4.65;;;3.53;;
68940;SDS011;55982;51.476;7.552;2022-07-24T08:01:43;3.78;;;3.45;;
68940;SDS011;55982;51.476;7.552;2022-07-24T08:04:09;9.23;;;3.80;;
68940;SDS011;55982;51.476;7.552;2022-07-24T08:06:34;4.45;;;3.50;;
68940;SDS011;55982;51.476;7.552;2022-07-24T08:09:00;4.10;;;3.35;;
68940;SDS011;55982;51.476;7.552;2022-07-24T08:11:25;4.28;;;3.08;;
68940;SDS011;55982;51.476;7.552;2022-07-24T08:13:51;3.58;;;3.28;;
68940;SDS011;55982;51.476;7.552;2022-07-24T08:16:16;7.97;;;3.92;;
68940;SDS011;55982;51.476;7.552;2022-07-24T08:18:42;6.50;;;4.00;;
68940;SDS011;55982;51.476;7.552;2022-07-24T08:21:07;5.60;;;3.78;;
68940;SDS011;55982;51.476;7.552;2022-07-24T08:23:32;4.40;;;3.65;;
68940;SDS011;55982;51.476;7.552;2022-07-24T08:25:58;4.40;;;4.00;;
68940;SDS011;55982;51.476;7.552;2022-07-24T08:28:26;6.53;;;3.67;;
68940;SDS011;55982;51.476;7.552;2022-07-24T08:30:51;5.40;;;4.18;;
68940;SDS011;55982;51.476;7.552;2022-07-24T08:33:17;5.07;;;3.90;;
68940;SDS011;55982;51.476;7.552;2022-07-24T08:35:43;8.48;;;3.90;;
68940;SDS011;55982;51.476;7.552;2022-07-24T08:38:08;5.47;;;3.85;;
68940;SDS011;55982;51.476;7.552;2022-07-24T08:40:35;5.30;;;4.03;;
68940;SDS011;55982;51.476;7.552;2022-07-24T08:43:07;4.22;;;3.60;;
68940;SDS011;55982;51.476;7.552;2022-07-24T08:45:34;6.95;;;3.75;;
68940;SDS011;55982;51.476;7.552;2022-07-24T08:48:04;4.90;;;3.65;;
68940;SDS011;55982;51.476;7.552;2022-07-24T08:50:31;5.47;;;4.00;;
68940;SDS011;55982;51.476;7.552;2022-07-24T08:52:57;6.30;;;3.63;;
68940;SDS011;55982;51.476;7.552;2022-07-24T08:55:22;4.25;;;3.80;;
68940;SDS011;55982;51.476;7.552;2022-07-24T08:57:48;4.03;;;3.55;;
68940;SDS011;55982;51.476;7.552;2022-07-24T09:00:14;3.92;;;3.63;;
68940;SDS011;55982;51.476;7.552;2022-07-24T09:02:39;4.13;;;3.72;;
68940;SDS011;55982;51.476;7.552;2022-07-24T09:05:05;6.97;;;3.78;;
68940;SDS011;55982;51.476;7.552;2022-07-24T09:07:31;4.80;;;3.80;;
68940;SDS011;55982;51.476;7.552;2022-07-24T09:09:58;5.32;;;3.90;;
68940;SDS011;55982;51.476;7.552;2022-07-24T09:12:33;5.20;;;3.75;;
68940;SDS011;55982;51.476;7.552;2022-07-24T09:15:00;7.28;;;4.07;;
68940;SDS011;55982;51.476;7.552;2022-07-24T09:17:27;6.65;;;3.80;;
68940;SDS011;55982;51.476;7.552;2022-07-24T09:22:24;7.00;;;4.38;;
68940;SDS011;55982;51.476;7.552;2022-07-24T09:27:28;6.93;;;4.10;;
68940;SDS011;55982;51.476;7.552;2022-07-24T09:29:53;4.97;;;4.03;;
68940;SDS011;55982;51.476;7.552;2022-07-24T09:32:22;8.07;;;3.90;;
68940;SDS011;55982;51.476;7.552;2022-07-24T09:34:50;4.47;;;3.90;;
68940;SDS011;55982;51.476;7.552;2022-07-24T09:37:18;5.47;;;4.15;;
68940;SDS011;55982;51.476;7.552;2022-07-24T09:39:44;6.55;;;4.10;;
68940;SDS011;55982;51.476;7.552;2022-07-24T09:42:11;7.10;;;4.25;;
68940;SDS011;55982;51.476;7.552;2022-07-24T09:44:37;4.60;;;4.20;;
68940;SDS011;55982;51.476;7.552;2022-07-24T09:47:04;4.70;;;4.30;;
68940;SDS011;55982;51.476;7.552;2022-07-24T09:49:31;5.28;;;3.80;;
68940;SDS011;55982;51.476;7.552;2022-07-24T09:54:43;4.95;;;3.70;;
68940;SDS011;55982;51.476;7.552;2022-07-24T09:57:29;5.18;;;3.83;;
68940;SDS011;55982;51.476;7.552;2022-07-24T09:59:58;6.10;;;4.05;;
68940;SDS011;55982;51.476;7.552;2022-07-24T10:02:26;4.85;;;3.97;;
68940;SDS011;55982;51.476;7.552;2022-07-24T10:04:53;4.72;;;4.32;;
68940;SDS011;55982;51.476;7.552;2022-07-24T10:07:20;6.20;;;4.28;;
68940;SDS011;55982;51.476;7.552;2022-07-24T10:09:47;6.38;;;4.32;;
68940;SDS011;55982;51.476;7.552;2022-07-24T10:12:16;6.15;;;4.00;;
68940;SDS011;55982;51.476;7.552;2022-07-24T10:14:49;5.10;;;4.68;;
68940;SDS011;55982;51.476;7.552;2022-07-24T10:17:17;5.15;;;4.25;;
68940;SDS011;55982;51.476;7.552;2022-07-24T10:19:44;6.22;;;4.10;;
68940;SDS011;55982;51.476;7.552;2022-07-24T10:22:13;4.60;;;4.10;;
68940;SDS011;55982;51.476;7.552;2022-07-24T10:24:45;5.20;;;4.57;;
68940;SDS011;55982;51.476;7.552;2022-07-24T10:27:38;5.68;;;3.80;;
68940;SDS011;55982;51.476;7.552;2022-07-24T10:30:10;4.28;;;3.80;;
68940;SDS011;55982;51.476;7.552;2022-07-24T10:32:37;5.20;;;4.20;;
68940;SDS011;55982;51.476;7.552;2022-07-24T10:37:33;4.60;;;4.07;;
68940;SDS011;55982;51.476;7.552;2022-07-24T10:45:29;5.18;;;3.97;;
68940;SDS011;55982;51.476;7.552;2022-07-24T10:47:56;5.03;;;4.20;;
68940;SDS011;55982;51.476;7.552;2022-07-24T10:50:22;4.88;;;4.35;;
68940;SDS011;55982;51.476;7.552;2022-07-24T10:52:50;4.93;;;4.30;;
68940;SDS011;55982;51.476;7.552;2022-07-24T10:55:26;4.35;;;3.95;;
68940;SDS011;55982;51.476;7.552;2022-07-24T10:58:00;6.63;;;4.22;;
68940;SDS011;55982;51.476;7.552;2022-07-24T11:00:30;4.78;;;4.28;;
68940;SDS011;55982;51.476;7.552;2022-07-24T11:03:03;6.32;;;4.38;;
68940;SDS011;55982;51.476;7.552;2022-07-24T11:05:32;4.88;;;3.97;;
68940;SDS011;55982;51.476;7.552;2022-07-24T11:08:36;4.72;;;4.25;;
68940;SDS011;55982;51.476;7.552;2022-07-24T11:10:57;4.28;;;3.90;;
68940;SDS011;55982;51.476;7.552;2022-07-24T11:21:14;6.05;;;4.40;;
68940;SDS011;55982;51.476;7.552;2022-07-24T11:29:45;5.65;;;3.95;;
68940;SDS011;55982;51.476;7.552;2022-07-24T11:32:17;4.68;;;4.18;;
68940;SDS011;55982;51.476;7.552;2022-07-24T11:34:44;6.65;;;3.92;;
68940;SDS011;55982;51.476;7.552;2022-07-24T11:37:11;4.35;;;3.95;;
68940;SDS011;55982;51.476;7.552;2022-07-24T11:39:38;6.50;;;4.55;;
68940;SDS011;55982;51.476;7.552;2022-07-24T11:42:05;4.50;;;4.10;;
68940;SDS011;55982;51.476;7.552;2022-07-24T11:44:35;4.45;;;3.40;;
68940;SDS011;55982;51.476;7.552;2022-07-24T11:49:46;4.35;;;3.80;;
68940;SDS011;55982;51.476;7.552;2022-07-24T11:52:17;4.22;;;3.83;;
68940;SDS011;55982;51.476;7.552;2022-07-24T11:54:49;5.40;;;3.70;;
68940;SDS011;55982;51.476;7.552;2022-07-24T11:57:21;6.63;;;4.10;;
68940;SDS011;55982;51.476;7.552;2022-07-24T11:59:48;4.72;;;3.70;;
68940;SDS011;55982;51.476;7.552;2022-07-24T12:02:15;5.00;;;3.75;;
68940;SDS011;55982;51.476;7.552;2022-07-24T12:04:42;4.43;;;4.03;;
68940;SDS011;55982;51.476;7.552;2022-07-24T12:07:09;4.25;;;3.50;;
68940;SDS011;55982;51.476;7.552;2022-07-24T12:09:43;3.80;;;3.50;;
68940;SDS011;55982;51.476;7.552;2022-07-24T12:15:12;4.13;;;3.72;;
68940;SDS011;55982;51.476;7.552;2022-07-24T12:20:31;4.30;;;3.90;;
68940;SDS011;55982;51.476;7.552;2022-07-24T12:22:57;4.97;;;3.58;;
68940;SDS011;55982;51.476;7.552;2022-07-24T12:25:25;4.50;;;4.05;;
68940;SDS011;55982;51.476;7.552;2022-07-24T12:28:00;6.43;;;3.97;;
68940;SDS011;55982;51.476;7.552;2022-07-24T12:30:29;8.23;;;3.38;;
68940;SDS011;55982;51.476;7.552;2022-07-24T12:33:04;5.60;;;4.05;;
68940;SDS011;55982;51.476;7.552;2022-07-24T12:35:32;4.40;;;3.87;;
68940;SDS011;55982;51.476;7.552;2022-07-24T12:38:27;3.45;;;3.15;;
68940;SDS011;55982;51.476;7.552;2022-07-24T12:41:14;5.22;;;3.88;;
68940;SDS011;55982;51.476;7.552;2022-07-24T12:46:35;4.85;;;3.85;;
68940;SDS011;55982;51.476;7.552;2022-07-24T12:49:06;4.90;;;3.63;;
68940;SDS011;55982;51.476;7.552;2022-07-24T12:54:34;4.88;;;4.10;;
68940;SDS011;55982;51.476;7.552;2022-07-24T12:57:06;4.80;;;4.40;;
68940;SDS011;55982;51.476;7.552;2022-07-24T12:59:37;5.50;;;4.05;;
68940;SDS011;55982;51.476;7.552;2022-07-24T13:04:51;3.75;;;3.40;;
68940;SDS011;55982;51.476;7.552;2022-07-24T13:07:23;3.70;;;3.40;;
68940;SDS011;55982;51.476;7.552;2022-07-24T13:09:50;3.80;;;3.50;;
68940;SDS011;55982;51.476;7.552;2022-07-24T13:12:18;6.80;;;3.80;;
68940;SDS011;55982;51.476;7.552;2022-07-24T13:14:44;4.07;;;3.67;;
68940;SDS011;55982;51.476;7.552;2022-07-24T13:17:16;4.20;;;3.60;;
68940;SDS011;55982;51.476;7.552;2022-07-24T13:19:47;4.10;;;3.60;;
68940;SDS011;55982;51.476;7.552;2022-07-24T13:22:14;4.35;;;3.28;;
68940;SDS011;55982;51.476;7.552;2022-07-24T13:24:40;6.90;;;3.65;;
68940;SDS011;55982;51.476;7.552;2022-07-24T13:27:07;5.13;;;3.88;;
68940;SDS011;55982;51.476;7.552;2022-07-24T13:29:34;4.40;;;3.30;;
68940;SDS011;55982;51.476;7.552;2022-07-24T13:32:00;4.10;;;3.53;;
68940;SDS011;55982;51.476;7.552;2022-07-24T13:34:26;4.30;;;3.78;;
68940;SDS011;55982;51.476;7.552;2022-07-24T13:36:53;5.32;;;3.75;;
68940;SDS011;55982;51.476;7.552;2022-07-24T13:39:19;4.10;;;3.50;;
68940;SDS011;55982;51.476;7.552;2022-07-24T13:41:46;4.20;;;3.80;;
68940;SDS011;55982;51.476;7.552;2022-07-24T13:44:12;3.63;;;3.33;;
68940;SDS011;55982;51.476;7.552;2022-07-24T13:46:37;4.15;;;3.72;;
68940;SDS011;55982;51.476;7.552;2022-07-24T13:49:03;3.92;;;3.30;;
68940;SDS011;55982;51.476;7.552;2022-07-24T13:51:31;4.15;;;3.75;;
68940;SDS011;55982;51.476;7.552;2022-07-24T13:53:56;4.35;;;3.90;;
68940;SDS011;55982;51.476;7.552;2022-07-24T13:56:22;4.18;;;3.58;;
68940;SDS011;55982;51.476;7.552;2022-07-24T13:58:47;4.20;;;3.80;;
68940;SDS011;55982;51.476;7.552;2022-07-24T14:01:13;4.38;;;3.97;;
68940;SDS011;55982;51.476;7.552;2022-07-24T14:03:39;5.82;;;4.43;;
68940;SDS011;55982;51.476;7.552;2022-07-24T14:06:07;5.65;;;4.10;;
68940;SDS011;55982;51.476;7.552;2022-07-24T14:08:33;4.78;;;3.75;;
68940;SDS011;55982;51.476;7.552;2022-07-24T14:10:59;5.38;;;3.83;;
68940;SDS011;55982;51.476;7.552;2022-07-24T14:13:25;4.43;;;3.75;;
68940;SDS011;55982;51.476;7.552;2022-07-24T14:15:50;5.18;;;4.47;;
68940;SDS011;55982;51.476;7.552;2022-07-24T14:18:15;4.50;;;4.00;;
68940;SDS011;55982;51.476;7.552;2022-07-24T14:20:42;4.38;;;3.97;;
68940;SDS011;55982;51.476;7.552;2022-07-24T14:23:07;4.82;;;3.50;;
68940;SDS011;55982;51.476;7.552;2022-07-24T14:25:34;4.05;;;3.67;;
68940;SDS011;55982;51.476;7.552;2022-07-24T14:28:00;6.03;;;3.90;;
68940;SDS011;55982;51.476;7.552;2022-07-24T14:30:26;7.75;;;3.92;;
68940;SDS011;55982;51.476;7.552;2022-07-24T14:32:51;4.43;;;3.88;;
68940;SDS011;55982;51.476;7.552;2022-07-24T14:35:17;5.03;;;4.18;;
68940;SDS011;55982;51.476;7.552;2022-07-24T14:37:42;5.38;;;3.97;;
68940;SDS011;55982;51.476;7.552;2022-07-24T14:40:08;7.43;;;4.57;;
68940;SDS011;55982;51.476;7.552;2022-07-24T14:42:34;4.75;;;4.15;;
68940;SDS011;55982;51.476;7.552;2022-07-24T14:45:00;4.30;;;3.90;;
68940;SDS011;55982;51.476;7.552;2022-07-24T14:47:27;4.40;;;4.00;;
68940;SDS011;55982;51.476;7.552;2022-07-24T14:49:53;4.25;;;3.85;;
68940;SDS011;55982;51.476;7.552;2022-07-24T14:52:20;3.90;;;3.60;;
68940;SDS011;55982;51.476;7.552;2022-07-24T14:54:45;4.25;;;3.85;;
68940;SDS011;55982;51.476;7.552;2022-07-24T14:57:11;5.90;;;3.95;;
68940;SDS011;55982;51.476;7.552;2022-07-24T14:59:37;4.25;;;3.70;;
68940;SDS011;55982;51.476;7.552;2022-07-24T15:02:03;3.83;;;3.53;;
68940;SDS011;55982;51.476;7.552;2022-07-24T15:04:28;5.30;;;3.80;;
68940;SDS011;55982;51.476;7.552;2022-07-24T15:06:54;4.07;;;3.65;;
68940;SDS011;55982;51.476;7.552;2022-07-24T15:09:19;4.15;;;3.83;;
68940;SDS011;55982;51.476;7.552;2022-07-24T15:11:44;3.70;;;3.30;;
68940;SDS011;55982;51.476;7.552;2022-07-24T15:14:10;4.95;;;3.47;;
68940;SDS011;55982;51.476;7.552;2022-07-24T15:16:35;4.20;;;3.50;;
68940;SDS011;55982;51.476;7.552;2022-07-24T15:19:01;3.50;;;3.20;;
68940;SDS011;55982;51.476;7.552;2022-07-24T15:21:26;4.18;;;3.47;;
68940;SDS011;55982;51.476;7.552;2022-07-24T15:23:51;4.03;;;3.63;;
68940;SDS011;55982;51.476;7.552;2022-07-24T15:26:17;4.53;;;3.20;;
68940;SDS011;55982;51.476;7.552;2022-07-24T15:28:43;4.00;;;3.70;;